sensor_id;sensor_type;location;lat;lon;timestamp;temperature;humidity
36322;DHT22;23564;48.290;11.460;2023-03-14T00:02:21;9.60;99.90
36322;DHT22;23564;48.290;11.460;2023-03-14T00:04:47;9.50;99.90
36322;DHT22;23564;48.290;11.460;2023-03-14T00:07:13;9.60;99.90
36322;DHT22;23564;48.290;11.460;2023-03-14T00:09:39;9.60;99.90
36322;DHT22;23564;48.290;11.460;2023-03-14T00:12:05;9.50;99.90
36322;DHT22;23564;48.290;11.460;2023-03-14T00:14:32;9.50;99.90
36322;DHT22;23564;48.290;11.460;2023-03-14T00:16:58;9.50;99.90
36322;DHT22;23564;48.290;11.460;2023-03-14T00:19:24;9.50;99.90
36322;DHT22;23564;48.290;11.460;2023-03-14T00:21:49;9.50;99.90
36322;DHT22;23564;48.290;11.460;2023-03-14T00:24:15;9.50;99.90
36322;DHT22;23564;48.290;11.460;2023-03-14T00:26:41;9.50;99.90
36322;DHT22;23564;48.290;11.460;2023-03-14T00:29:06;9.60;99.90
36322;DHT22;23564;48.290;11.460;2023-03-14T00:31:32;9.60;99.90
36322;DHT22;23564;48.290;11.460;2023-03-14T00:33:57;9.60;99.90
36322;DHT22;23564;48.290;11.460;2023-03-14T00:36:23;9.70;99.90
36322;DHT22;23564;48.290;11.460;2023-03-14T00:38:50;9.70;99.90
36322;DHT22;23564;48.290;11.460;2023-03-14T00:41:22;9.70;99.90
36322;DHT22;23564;48.290;11.460;2023-03-14T00:43:49;9.70;1.00
36322;DHT22;23564;48.290;11.460;2023-03-14T00:46:14;9.70;1.00
36322;DHT22;23564;48.290;11.460;2023-03-14T00:48:40;9.70;1.00
36322;DHT22;23564;48.290;11.460;2023-03-14T00:51:08;9.70;1.00
36322;DHT22;23564;48.290;11.460;2023-03-14T00:53:38;9.80;1.00
36322;DHT22;23564;48.290;11.460;2023-03-14T00:56:05;9.80;1.00
36322;DHT22;23564;48.290;11.460;2023-03-14T00:58:32;9.80;1.00
36322;DHT22;23564;48.290;11.460;2023-03-14T01:00:57;9.80;1.00
36322;DHT22;23564;48.290;11.460;2023-03-14T01:03:23;9.80;1.00
36322;DHT22;23564;48.290;11.460;2023-03-14T01:05:49;9.90;1.00
36322;DHT22;23564;48.290;11.460;2023-03-14T01:08:15;9.90;1.00
36322;DHT22;23564;48.290;11.460;2023-03-14T01:10:41;9.90;1.00
36322;DHT22;23564;48.290;11.460;2023-03-14T01:13:08;9.80;1.00
36322;DHT22;23564;48.290;11.460;2023-03-14T01:15:35;9.90;1.00
36322;DHT22;23564;48.290;11.460;2023-03-14T01:18:01;9.80;1.00
36322;DHT22;23564;48.290;11.460;2023-03-14T01:20:27;9.80;1.00
36322;DHT22;23564;48.290;11.460;2023-03-14T01:22:52;9.80;1.00
36322;DHT22;23564;48.290;11.460;2023-03-14T01:25:18;9.80;1.00
36322;DHT22;23564;48.290;11.460;2023-03-14T01:27:44;9.70;1.00
36322;DHT22;23564;48.290;11.460;2023-03-14T01:30:11;9.70;1.00
36322;DHT22;23564;48.290;11.460;2023-03-14T01:32:37;9.60;1.00
36322;DHT22;23564;48.290;11.460;2023-03-14T01:35:04;9.60;1.00
36322;DHT22;23564;48.290;11.460;2023-03-14T01:37:29;9.60;1.00
36322;DHT22;23564;48.290;11.460;2023-03-14T01:39:55;9.50;1.00
36322;DHT22;23564;48.290;11.460;2023-03-14T01:42:21;9.40;1.00
36322;DHT22;23564;48.290;11.460;2023-03-14T01:44:55;9.40;1.00
36322;DHT22;23564;48.290;11.460;2023-03-14T01:47:21;9.40;1.00
36322;DHT22;23564;48.290;11.460;2023-03-14T01:49:50;9.40;1.00
36322;DHT22;23564;48.290;11.460;2023-03-14T01:52:23;9.30;1.00
36322;DHT22;23564;48.290;11.460;2023-03-14T01:54:54;9.30;1.00
36322;DHT22;23564;48.290;11.460;2023-03-14T01:57:29;9.30;1.00
36322;DHT22;23564;48.290;11.460;2023-03-14T02:00:07;9.20;1.00
36322;DHT22;23564;48.290;11.460;2023-03-14T02:02:44;9.20;1.00
36322;DHT22;23564;48.290;11.460;2023-03-14T02:05:12;9.10;1.00
36322;DHT22;23564;48.290;11.460;2023-03-14T02:07:49;9.10;1.00
36322;DHT22;23564;48.290;11.460;2023-03-14T02:10:16;9.10;1.00
36322;DHT22;23564;48.290;11.460;2023-03-14T02:12:45;9.00;1.00
36322;DHT22;23564;48.290;11.460;2023-03-14T02:15:11;9.00;1.00
36322;DHT22;23564;48.290;11.460;2023-03-14T02:17:38;9.00;1.00
36322;DHT22;23564;48.290;11.460;2023-03-14T02:23:10;9.00;1.00
36322;DHT22;23564;48.290;11.460;2023-03-14T02:25:57;8.90;1.00
36322;DHT22;23564;48.290;11.460;2023-03-14T02:28:23;8.90;1.00
36322;DHT22;23564;48.290;11.460;2023-03-14T02:30:49;8.90;1.00
36322;DHT22;23564;48.290;11.460;2023-03-14T02:33:17;8.90;1.00
36322;DHT22;23564;48.290;11.460;2023-03-14T02:38:35;8.90;1.00
36322;DHT22;23564;48.290;11.460;2023-03-14T02:41:03;8.90;1.00
36322;DHT22;23564;48.290;11.460;2023-03-14T02:43:29;8.90;1.00
36322;DHT22;23564;48.290;11.460;2023-03-14T02:45:54;8.80;1.00
36322;DHT22;23564;48.290;11.460;2023-03-14T02:48:29;8.80;1.00
36322;DHT22;23564;48.290;11.460;2023-03-14T02:51:00;8.80;1.00
36322;DHT22;23564;48.290;11.460;2023-03-14T02:53:32;8.80;1.00
36322;DHT22;23564;48.290;11.460;2023-03-14T02:55:59;8.80;1.00
36322;DHT22;23564;48.290;11.460;2023-03-14T02:58:25;8.70;1.00
36322;DHT22;23564;48.290;11.460;2023-03-14T03:00:52;8.70;1.00
36322;DHT22;23564;48.290;11.460;2023-03-14T03:03:18;8.70;1.00
36322;DHT22;23564;48.290;11.460;2023-03-14T03:05:48;8.60;1.00
36322;DHT22;23564;48.290;11.460;2023-03-14T03:08:13;8.60;1.00
36322;DHT22;23564;48.290;11.460;2023-03-14T03:10:39;8.60;1.00
36322;DHT22;23564;48.290;11.460;2023-03-14T03:13:04;8.60;1.00
36322;DHT22;23564;48.290;11.460;2023-03-14T03:15:31;8.60;1.00
36322;DHT22;23564;48.290;11.460;2023-03-14T03:17:56;8.60;1.00
36322;DHT22;23564;48.290;11.460;2023-03-14T03:20:22;8.60;1.00
36322;DHT22;23564;48.290;11.460;2023-03-14T03:22:48;8.60;1.00
36322;DHT22;23564;48.290;11.460;2023-03-14T03:25:15;8.60;1.00
36322;DHT22;23564;48.290;11.460;2023-03-14T03:27:40;8.60;1.00
36322;DHT22;23564;48.290;11.460;2023-03-14T03:30:07;8.60;1.00
36322;DHT22;23564;48.290;11.460;2023-03-14T03:32:33;8.60;1.00
36322;DHT22;23564;48.290;11.460;2023-03-14T03:34:59;8.60;1.00
36322;DHT22;23564;48.290;11.460;2023-03-14T03:37:24;8.60;1.00
36322;DHT22;23564;48.290;11.460;2023-03-14T03:39:51;8.60;1.00
36322;DHT22;23564;48.290;11.460;2023-03-14T03:42:17;8.60;1.00
36322;DHT22;23564;48.290;11.460;2023-03-14T03:44:44;8.60;1.00
36322;DHT22;23564;48.290;11.460;2023-03-14T03:47:09;8.60;1.00
36322;DHT22;23564;48.290;11.460;2023-03-14T03:49:35;8.60;1.00
36322;DHT22;23564;48.290;11.460;2023-03-14T03:52:01;8.60;1.00
36322;DHT22;23564;48.290;11.460;2023-03-14T03:54:26;8.60;1.00
36322;DHT22;23564;48.290;11.460;2023-03-14T03:56:54;8.60;1.00
36322;DHT22;23564;48.290;11.460;2023-03-14T03:59:19;8.50;1.00
36322;DHT22;23564;48.290;11.460;2023-03-14T04:01:45;8.50;1.00
36322;DHT22;23564;48.290;11.460;2023-03-14T04:04:10;8.50;1.00
36322;DHT22;23564;48.290;11.460;2023-03-14T04:06:37;8.50;1.00
36322;DHT22;23564;48.290;11.460;2023-03-14T04:09:03;8.50;1.00
36322;DHT22;23564;48.290;11.460;2023-03-14T04:11:28;8.50;1.00
36322;DHT22;23564;48.290;11.460;2023-03-14T04:13:54;8.50;1.00
36322;DHT22;23564;48.290;11.460;2023-03-14T04:16:23;8.40;1.00
36322;DHT22;23564;48.290;11.460;2023-03-14T04:18:49;8.50;1.00
36322;DHT22;23564;48.290;11.460;2023-03-14T04:21:15;8.40;1.00
36322;DHT22;23564;48.290;11.460;2023-03-14T04:23:40;8.40;1.00
36322;DHT22;23564;48.290;11.460;2023-03-14T04:26:06;8.50;1.00
36322;DHT22;23564;48.290;11.460;2023-03-14T04:28:31;8.40;1.00
36322;DHT22;23564;48.290;11.460;2023-03-14T04:30:57;8.40;1.00
36322;DHT22;23564;48.290;11.460;2023-03-14T04:33:23;8.40;1.00
36322;DHT22;23564;48.290;11.460;2023-03-14T04:35:49;8.40;1.00
36322;DHT22;23564;48.290;11.460;2023-03-14T04:38:18;8.40;1.00
36322;DHT22;23564;48.290;11.460;2023-03-14T04:40:44;8.30;1.00
36322;DHT22;23564;48.290;11.460;2023-03-14T04:43:11;8.30;1.00
36322;DHT22;23564;48.290;11.460;2023-03-14T04:45:37;8.40;1.00
36322;DHT22;23564;48.290;11.460;2023-03-14T04:48:03;8.30;1.00
36322;DHT22;23564;48.290;11.460;2023-03-14T04:50:28;8.30;1.00
36322;DHT22;23564;48.290;11.460;2023-03-14T04:52:54;8.30;1.00
36322;DHT22;23564;48.290;11.460;2023-03-14T04:55:20;8.30;1.00
36322;DHT22;23564;48.290;11.460;2023-03-14T04:57:45;8.30;1.00
36322;DHT22;23564;48.290;11.460;2023-03-14T05:00:11;8.20;1.00
36322;DHT22;23564;48.290;11.460;2023-03-14T05:02:37;8.20;1.00
36322;DHT22;23564;48.290;11.460;2023-03-14T05:05:03;8.20;1.00
36322;DHT22;23564;48.290;11.460;2023-03-14T05:07:29;8.20;1.00
36322;DHT22;23564;48.290;11.460;2023-03-14T05:09:55;8.20;1.00
36322;DHT22;23564;48.290;11.460;2023-03-14T05:12:20;8.20;1.00
36322;DHT22;23564;48.290;11.460;2023-03-14T05:14:46;8.20;1.00
36322;DHT22;23564;48.290;11.460;2023-03-14T05:17:12;8.20;1.00
36322;DHT22;23564;48.290;11.460;2023-03-14T05:19:40;8.20;1.00
36322;DHT22;23564;48.290;11.460;2023-03-14T05:22:06;8.20;1.00
36322;DHT22;23564;48.290;11.460;2023-03-14T05:24:32;8.20;1.00
36322;DHT22;23564;48.290;11.460;2023-03-14T05:26:58;8.10;1.00
36322;DHT22;23564;48.290;11.460;2023-03-14T05:29:23;8.20;1.00
36322;DHT22;23564;48.290;11.460;2023-03-14T05:31:49;8.10;1.00
36322;DHT22;23564;48.290;11.460;2023-03-14T05:34:14;8.10;1.00
36322;DHT22;23564;48.290;11.460;2023-03-14T05:36:40;8.10;1.00
36322;DHT22;23564;48.290;11.460;2023-03-14T05:39:06;8.10;1.00
36322;DHT22;23564;48.290;11.460;2023-03-14T05:41:31;8.10;1.00
36322;DHT22;23564;48.290;11.460;2023-03-14T05:43:57;8.10;1.00
36322;DHT22;23564;48.290;11.460;2023-03-14T05:46:22;8.10;1.00
36322;DHT22;23564;48.290;11.460;2023-03-14T05:48:48;8.00;1.00
36322;DHT22;23564;48.290;11.460;2023-03-14T05:51:14;8.00;1.00
36322;DHT22;23564;48.290;11.460;2023-03-14T05:53:39;8.00;1.00
36322;DHT22;23564;48.290;11.460;2023-03-14T05:56:05;8.00;1.00
36322;DHT22;23564;48.290;11.460;2023-03-14T05:58:31;8.10;1.00
36322;DHT22;23564;48.290;11.460;2023-03-14T06:00:57;8.10;1.00
36322;DHT22;23564;48.290;11.460;2023-03-14T06:03:22;8.10;1.00
36322;DHT22;23564;48.290;11.460;2023-03-14T06:05:51;8.10;1.00
36322;DHT22;23564;48.290;11.460;2023-03-14T06:08:17;8.10;1.00
36322;DHT22;23564;48.290;11.460;2023-03-14T06:10:43;8.10;1.00
36322;DHT22;23564;48.290;11.460;2023-03-14T06:13:08;8.10;1.00
36322;DHT22;23564;48.290;11.460;2023-03-14T06:15:34;8.10;1.00
36322;DHT22;23564;48.290;11.460;2023-03-14T06:18:01;8.20;1.00
36322;DHT22;23564;48.290;11.460;2023-03-14T06:20:26;8.20;1.00
36322;DHT22;23564;48.290;11.460;2023-03-14T06:22:52;8.20;1.00
36322;DHT22;23564;48.290;11.460;2023-03-14T06:25:18;8.20;1.00
36322;DHT22;23564;48.290;11.460;2023-03-14T06:27:43;8.20;1.00
36322;DHT22;23564;48.290;11.460;2023-03-14T06:30:09;8.30;1.00
36322;DHT22;23564;48.290;11.460;2023-03-14T06:32:35;8.30;1.00
36322;DHT22;23564;48.290;11.460;2023-03-14T06:35:01;8.30;1.00
36322;DHT22;23564;48.290;11.460;2023-03-14T06:37:27;8.30;1.00
36322;DHT22;23564;48.290;11.460;2023-03-14T06:39:54;8.40;1.00
36322;DHT22;23564;48.290;11.460;2023-03-14T06:42:19;8.40;1.00
36322;DHT22;23564;48.290;11.460;2023-03-14T06:44:45;8.40;1.00
36322;DHT22;23564;48.290;11.460;2023-03-14T06:47:11;8.40;1.00
36322;DHT22;23564;48.290;11.460;2023-03-14T06:49:37;8.50;1.00
36322;DHT22;23564;48.290;11.460;2023-03-14T06:52:03;8.50;1.00
36322;DHT22;23564;48.290;11.460;2023-03-14T06:54:29;8.60;1.00
36322;DHT22;23564;48.290;11.460;2023-03-14T06:56:54;8.60;1.00
36322;DHT22;23564;48.290;11.460;2023-03-14T06:59:20;8.60;1.00
36322;DHT22;23564;48.290;11.460;2023-03-14T07:01:45;8.60;1.00
36322;DHT22;23564;48.290;11.460;2023-03-14T07:04:11;8.70;1.00
36322;DHT22;23564;48.290;11.460;2023-03-14T07:06:37;8.70;1.00
36322;DHT22;23564;48.290;11.460;2023-03-14T07:09:05;8.70;1.00
36322;DHT22;23564;48.290;11.460;2023-03-14T07:11:30;8.80;1.00
36322;DHT22;23564;48.290;11.460;2023-03-14T07:13:56;8.80;1.00
36322;DHT22;23564;48.290;11.460;2023-03-14T07:16:21;8.80;1.00
36322;DHT22;23564;48.290;11.460;2023-03-14T07:18:47;8.90;1.00
36322;DHT22;23564;48.290;11.460;2023-03-14T07:21:14;8.90;1.00
36322;DHT22;23564;48.290;11.460;2023-03-14T07:23:40;8.90;1.00
36322;DHT22;23564;48.290;11.460;2023-03-14T07:26:06;9.00;1.00
36322;DHT22;23564;48.290;11.460;2023-03-14T07:28:31;9.00;1.00
36322;DHT22;23564;48.290;11.460;2023-03-14T07:30:57;9.00;1.00
36322;DHT22;23564;48.290;11.460;2023-03-14T07:33:22;9.00;1.00
36322;DHT22;23564;48.290;11.460;2023-03-14T07:35:49;9.00;1.00
36322;DHT22;23564;48.290;11.460;2023-03-14T07:38:15;9.00;99.90
36322;DHT22;23564;48.290;11.460;2023-03-14T07:40:41;9.00;99.90
36322;DHT22;23564;48.290;11.460;2023-03-14T07:43:07;9.00;99.90
36322;DHT22;23564;48.290;11.460;2023-03-14T07:45:32;9.00;99.90
36322;DHT22;23564;48.290;11.460;2023-03-14T07:47:58;9.10;99.90
36322;DHT22;23564;48.290;11.460;2023-03-14T07:50:25;9.10;99.90
36322;DHT22;23564;48.290;11.460;2023-03-14T07:52:51;9.10;99.90
36322;DHT22;23564;48.290;11.460;2023-03-14T07:55:16;9.10;99.90
36322;DHT22;23564;48.290;11.460;2023-03-14T07:57:42;9.10;99.90
36322;DHT22;23564;48.290;11.460;2023-03-14T08:00:08;9.20;99.90
36322;DHT22;23564;48.290;11.460;2023-03-14T08:02:34;9.20;99.90
36322;DHT22;23564;48.290;11.460;2023-03-14T08:05:02;9.30;99.90
36322;DHT22;23564;48.290;11.460;2023-03-14T08:07:27;9.30;99.90
36322;DHT22;23564;48.290;11.460;2023-03-14T08:09:53;9.50;99.90
36322;DHT22;23564;48.290;11.460;2023-03-14T08:12:19;9.50;99.90
36322;DHT22;23564;48.290;11.460;2023-03-14T08:14:44;9.60;99.90
36322;DHT22;23564;48.290;11.460;2023-03-14T08:17:10;9.70;99.90
36322;DHT22;23564;48.290;11.460;2023-03-14T08:19:35;9.80;99.90
36322;DHT22;23564;48.290;11.460;2023-03-14T08:22:01;9.80;99.90
36322;DHT22;23564;48.290;11.460;2023-03-14T08:24:27;9.90;99.90
36322;DHT22;23564;48.290;11.460;2023-03-14T08:26:53;10.00;99.90
36322;DHT22;23564;48.290;11.460;2023-03-14T08:29:19;10.10;83.60
36322;DHT22;23564;48.290;11.460;2023-03-14T08:31:45;10.10;64.20
36322;DHT22;23564;48.290;11.460;2023-03-14T08:34:10;10.20;1.00
36322;DHT22;23564;48.290;11.460;2023-03-14T08:36:36;10.20;99.90
36322;DHT22;23564;48.290;11.460;2023-03-14T08:39:02;10.20;1.00
36322;DHT22;23564;48.290;11.460;2023-03-14T08:41:29;10.30;1.00
36322;DHT22;23564;48.290;11.460;2023-03-14T08:43:54;10.40;1.00
36322;DHT22;23564;48.290;11.460;2023-03-14T08:46:20;10.40;99.90
36322;DHT22;23564;48.290;11.460;2023-03-14T08:48:46;10.40;99.90
36322;DHT22;23564;48.290;11.460;2023-03-14T08:51:13;10.40;99.90
36322;DHT22;23564;48.290;11.460;2023-03-14T08:53:40;10.50;99.90
36322;DHT22;23564;48.290;11.460;2023-03-14T08:56:07;10.60;99.90
36322;DHT22;23564;48.290;11.460;2023-03-14T08:58:35;10.60;1.00
36322;DHT22;23564;48.290;11.460;2023-03-14T09:01:02;10.70;99.90
36322;DHT22;23564;48.290;11.460;2023-03-14T09:03:28;10.60;1.00
36322;DHT22;23564;48.290;11.460;2023-03-14T09:05:54;10.60;99.90
36322;DHT22;23564;48.290;11.460;2023-03-14T09:08:19;10.60;99.90
36322;DHT22;23564;48.290;11.460;2023-03-14T09:10:45;10.60;91.60
36322;DHT22;23564;48.290;11.460;2023-03-14T09:13:11;10.70;99.90
36322;DHT22;23564;48.290;11.460;2023-03-14T09:15:37;10.70;1.00
36322;DHT22;23564;48.290;11.460;2023-03-14T09:18:03;10.80;1.00
36322;DHT22;23564;48.290;11.460;2023-03-14T09:20:28;10.80;1.00
36322;DHT22;23564;48.290;11.460;2023-03-14T09:22:54;10.80;99.90
36322;DHT22;23564;48.290;11.460;2023-03-14T09:25:20;10.90;1.00
36322;DHT22;23564;48.290;11.460;2023-03-14T09:27:46;10.90;59.60
36322;DHT22;23564;48.290;11.460;2023-03-14T09:30:12;11.00;99.90
36322;DHT22;23564;48.290;11.460;2023-03-14T09:32:37;11.10;1.00
36322;DHT22;23564;48.290;11.460;2023-03-14T09:35:03;11.10;99.90
36322;DHT22;23564;48.290;11.460;2023-03-14T09:37:29;11.10;99.90
36322;DHT22;23564;48.290;11.460;2023-03-14T09:39:54;11.20;79.60
36322;DHT22;23564;48.290;11.460;2023-03-14T09:42:23;11.30;1.00
36322;DHT22;23564;48.290;11.460;2023-03-14T09:44:57;11.40;99.90
36322;DHT22;23564;48.290;11.460;2023-03-14T09:47:25;11.40;99.90
36322;DHT22;23564;48.290;11.460;2023-03-14T09:49:51;11.40;99.90
36322;DHT22;23564;48.290;11.460;2023-03-14T09:52:23;11.40;99.90
36322;DHT22;23564;48.290;11.460;2023-03-14T09:54:58;11.40;99.90
36322;DHT22;23564;48.290;11.460;2023-03-14T09:57:26;11.50;99.90
36322;DHT22;23564;48.290;11.460;2023-03-14T09:59:54;11.60;99.90
36322;DHT22;23564;48.290;11.460;2023-03-14T10:02:23;11.70;98.20
36322;DHT22;23564;48.290;11.460;2023-03-14T10:04:51;11.60;34.50
36322;DHT22;23564;48.290;11.460;2023-03-14T10:07:23;11.70;45.00
36322;DHT22;23564;48.290;11.460;2023-03-14T10:09:51;11.70;1.00
36322;DHT22;23564;48.290;11.460;2023-03-14T10:12:17;11.70;1.00
36322;DHT22;23564;48.290;11.460;2023-03-14T10:14:49;11.70;1.00
36322;DHT22;23564;48.290;11.460;2023-03-14T10:17:16;11.70;1.00
36322;DHT22;23564;48.290;11.460;2023-03-14T10:22:19;11.80;1.00
36322;DHT22;23564;48.290;11.460;2023-03-14T10:24:46;11.80;99.90
36322;DHT22;23564;48.290;11.460;2023-03-14T10:27:27;11.70;99.90
36322;DHT22;23564;48.290;11.460;2023-03-14T10:29:59;11.70;99.90
36322;DHT22;23564;48.290;11.460;2023-03-14T10:32:35;11.70;99.90
36322;DHT22;23564;48.290;11.460;2023-03-14T10:37:57;12.00;99.90
36322;DHT22;23564;48.290;11.460;2023-03-14T10:40:28;12.10;99.90
36322;DHT22;23564;48.290;11.460;2023-03-14T10:42:56;12.00;99.90
36322;DHT22;23564;48.290;11.460;2023-03-14T10:47:52;11.90;99.90
36322;DHT22;23564;48.290;11.460;2023-03-14T10:50:24;12.00;99.90
36322;DHT22;23564;48.290;11.460;2023-03-14T10:52:52;12.20;99.90
36322;DHT22;23564;48.290;11.460;2023-03-14T10:55:18;12.30;1.00
36322;DHT22;23564;48.290;11.460;2023-03-14T10:57:44;12.30;1.00
36322;DHT22;23564;48.290;11.460;2023-03-14T11:00:18;12.40;1.00
36322;DHT22;23564;48.290;11.460;2023-03-14T11:03:04;12.50;1.00
36322;DHT22;23564;48.290;11.460;2023-03-14T11:05:58;12.70;1.00
36322;DHT22;23564;48.290;11.460;2023-03-14T11:08:35;12.70;99.90
36322;DHT22;23564;48.290;11.460;2023-03-14T11:14:00;12.80;1.00
36322;DHT22;23564;48.290;11.460;2023-03-14T11:17:01;12.90;99.90
36322;DHT22;23564;48.290;11.460;2023-03-14T11:25:07;13.30;99.90
36322;DHT22;23564;48.290;11.460;2023-03-14T11:30:50;13.30;99.90
36322;DHT22;23564;48.290;11.460;2023-03-14T11:33:22;13.30;87.90
36322;DHT22;23564;48.290;11.460;2023-03-14T11:40:58;12.90;1.00
36322;DHT22;23564;48.290;11.460;2023-03-14T11:43:35;12.80;1.00
36322;DHT22;23564;48.290;11.460;2023-03-14T11:46:27;12.80;99.90
36322;DHT22;23564;48.290;11.460;2023-03-14T11:49:08;12.60;1.00
36322;DHT22;23564;48.290;11.460;2023-03-14T11:51:39;12.60;99.90
36322;DHT22;23564;48.290;11.460;2023-03-14T11:54:20;12.60;1.00
36322;DHT22;23564;48.290;11.460;2023-03-14T11:56:59;12.60;1.00
36322;DHT22;23564;48.290;11.460;2023-03-14T12:02:22;12.50;1.00
36322;DHT22;23564;48.290;11.460;2023-03-14T12:05:03;12.40;1.00
36322;DHT22;23564;48.290;11.460;2023-03-14T12:10:26;12.30;1.00
36322;DHT22;23564;48.290;11.460;2023-03-14T12:12:52;12.20;1.00
36322;DHT22;23564;48.290;11.460;2023-03-14T12:15:20;12.10;99.90
36322;DHT22;23564;48.290;11.460;2023-03-14T12:17:47;12.10;99.90
36322;DHT22;23564;48.290;11.460;2023-03-14T12:20:19;12.10;99.90
36322;DHT22;23564;48.290;11.460;2023-03-14T12:22:47;12.20;1.00
36322;DHT22;23564;48.290;11.460;2023-03-14T12:25:30;12.30;1.00
36322;DHT22;23564;48.290;11.460;2023-03-14T12:30:26;12.50;1.00
36322;DHT22;23564;48.290;11.460;2023-03-14T12:35:47;12.80;1.00
36322;DHT22;23564;48.290;11.460;2023-03-14T12:40:54;13.00;99.90
36322;DHT22;23564;48.290;11.460;2023-03-14T12:43:27;13.00;99.90
36322;DHT22;23564;48.290;11.460;2023-03-14T12:46:19;12.90;99.90
36322;DHT22;23564;48.290;11.460;2023-03-14T12:48:47;12.80;99.90
36322;DHT22;23564;48.290;11.460;2023-03-14T12:51:15;12.50;99.90
36322;DHT22;23564;48.290;11.460;2023-03-14T13:04:52;12.10;1.00
36322;DHT22;23564;48.290;11.460;2023-03-14T13:07:34;12.10;99.90
36322;DHT22;23564;48.290;11.460;2023-03-14T13:15:38;12.10;1.00
36322;DHT22;23564;48.290;11.460;2023-03-14T13:18:17;12.10;1.00
36322;DHT22;23564;48.290;11.460;2023-03-14T13:20:55;12.10;1.00
36322;DHT22;23564;48.290;11.460;2023-03-14T13:23:23;11.90;1.00
36322;DHT22;23564;48.290;11.460;2023-03-14T13:25:49;11.80;1.00
36322;DHT22;23564;48.290;11.460;2023-03-14T13:28:16;11.70;1.00
36322;DHT22;23564;48.290;11.460;2023-03-14T13:30:44;11.50;99.90
36322;DHT22;23564;48.290;11.460;2023-03-14T13:33:21;11.50;1.00
36322;DHT22;23564;48.290;11.460;2023-03-14T13:35:54;11.50;1.00
36322;DHT22;23564;48.290;11.460;2023-03-14T13:38:23;11.30;1.00
36322;DHT22;23564;48.290;11.460;2023-03-14T13:40:51;11.20;99.90
36322;DHT22;23564;48.290;11.460;2023-03-14T13:43:29;11.10;99.90
36322;DHT22;23564;48.290;11.460;2023-03-14T13:46:16;10.80;3.90
36322;DHT22;23564;48.290;11.460;2023-03-14T13:48:50;10.60;8.30
36322;DHT22;23564;48.290;11.460;2023-03-14T13:51:18;10.50;99.90
36322;DHT22;23564;48.290;11.460;2023-03-14T13:53:48;10.50;1.00
36322;DHT22;23564;48.290;11.460;2023-03-14T13:56:16;10.40;1.00
36322;DHT22;23564;48.290;11.460;2023-03-14T13:58:42;10.40;1.00
36322;DHT22;23564;48.290;11.460;2023-03-14T14:03:41;10.20;99.90
36322;DHT22;23564;48.290;11.460;2023-03-14T14:06:22;10.10;99.90
36322;DHT22;23564;48.290;11.460;2023-03-14T14:08:48;10.00;99.90
36322;DHT22;23564;48.290;11.460;2023-03-14T14:11:31;9.90;1.00
36322;DHT22;23564;48.290;11.460;2023-03-14T14:13:59;9.80;99.90
36322;DHT22;23564;48.290;11.460;2023-03-14T14:16:26;9.80;1.00
36322;DHT22;23564;48.290;11.460;2023-03-14T14:18:55;9.70;1.00
36322;DHT22;23564;48.290;11.460;2023-03-14T14:21:21;9.70;99.90
36322;DHT22;23564;48.290;11.460;2023-03-14T14:23:48;9.60;1.00
36322;DHT22;23564;48.290;11.460;2023-03-14T14:26:18;9.60;1.00
36322;DHT22;23564;48.290;11.460;2023-03-14T14:28:45;9.50;96.40
36322;DHT22;23564;48.290;11.460;2023-03-14T14:34:01;9.20;99.90
36322;DHT22;23564;48.290;11.460;2023-03-14T14:36:38;9.10;1.00
36322;DHT22;23564;48.290;11.460;2023-03-14T14:39:21;9.00;1.00
36322;DHT22;23564;48.290;11.460;2023-03-14T14:41:49;8.90;99.90
36322;DHT22;23564;48.290;11.460;2023-03-14T14:44:45;8.80;99.90
36322;DHT22;23564;48.290;11.460;2023-03-14T14:47:15;8.80;99.90
36322;DHT22;23564;48.290;11.460;2023-03-14T14:49:43;8.80;1.00
36322;DHT22;23564;48.290;11.460;2023-03-14T14:52:21;8.80;1.00
36322;DHT22;23564;48.290;11.460;2023-03-14T14:54:57;8.80;99.00
36322;DHT22;23564;48.290;11.460;2023-03-14T14:57:28;8.80;99.90
36322;DHT22;23564;48.290;11.460;2023-03-14T15:00:00;8.80;99.90
36322;DHT22;23564;48.290;11.460;2023-03-14T15:02:37;8.70;99.90
36322;DHT22;23564;48.290;11.460;2023-03-14T15:05:13;8.70;99.90
36322;DHT22;23564;48.290;11.460;2023-03-14T15:07:39;8.60;99.90
36322;DHT22;23564;48.290;11.460;2023-03-14T15:10:05;8.50;99.90
36322;DHT22;23564;48.290;11.460;2023-03-14T15:12:31;8.40;99.90
36322;DHT22;23564;48.290;11.460;2023-03-14T15:14:57;8.40;99.90
36322;DHT22;23564;48.290;11.460;2023-03-14T15:17:23;8.40;99.90
36322;DHT22;23564;48.290;11.460;2023-03-14T15:19:49;8.40;99.90
36322;DHT22;23564;48.290;11.460;2023-03-14T15:22:15;8.50;99.90
36322;DHT22;23564;48.290;11.460;2023-03-14T15:24:41;8.50;99.90
36322;DHT22;23564;48.290;11.460;2023-03-14T15:27:15;8.60;99.90
36322;DHT22;23564;48.290;11.460;2023-03-14T15:29:41;8.60;99.90
36322;DHT22;23564;48.290;11.460;2023-03-14T15:32:13;8.70;99.90
36322;DHT22;23564;48.290;11.460;2023-03-14T15:34:40;8.70;44.90
36322;DHT22;23564;48.290;11.460;2023-03-14T15:37:10;8.60;99.90
36322;DHT22;23564;48.290;11.460;2023-03-14T15:39:36;8.60;99.90
36322;DHT22;23564;48.290;11.460;2023-03-14T15:42:01;8.50;99.90
36322;DHT22;23564;48.290;11.460;2023-03-14T15:44:27;8.50;99.90
36322;DHT22;23564;48.290;11.460;2023-03-14T15:46:53;8.40;99.90
36322;DHT22;23564;48.290;11.460;2023-03-14T15:49:18;8.40;1.00
36322;DHT22;23564;48.290;11.460;2023-03-14T15:51:44;8.40;99.90
36322;DHT22;23564;48.290;11.460;2023-03-14T15:54:09;8.40;99.90
36322;DHT22;23564;48.290;11.460;2023-03-14T15:56:35;8.60;59.60
36322;DHT22;23564;48.290;11.460;2023-03-14T15:59:01;8.60;1.00
36322;DHT22;23564;48.290;11.460;2023-03-14T16:01:26;8.60;49.90
36322;DHT22;23564;48.290;11.460;2023-03-14T16:03:52;8.70;99.90
36322;DHT22;23564;48.290;11.460;2023-03-14T16:06:18;8.70;99.90
36322;DHT22;23564;48.290;11.460;2023-03-14T16:08:45;8.70;1.00
36322;DHT22;23564;48.290;11.460;2023-03-14T16:11:12;8.70;1.00
36322;DHT22;23564;48.290;11.460;2023-03-14T16:13:38;8.70;99.90
36322;DHT22;23564;48.290;11.460;2023-03-14T16:16:05;8.60;99.90
36322;DHT22;23564;48.290;11.460;2023-03-14T16:18:33;8.50;99.90
36322;DHT22;23564;48.290;11.460;2023-03-14T16:21:08;8.40;99.90
36322;DHT22;23564;48.290;11.460;2023-03-14T16:23:35;8.40;99.90
36322;DHT22;23564;48.290;11.460;2023-03-14T16:26:06;8.30;99.90
36322;DHT22;23564;48.290;11.460;2023-03-14T16:28:32;8.30;99.90
36322;DHT22;23564;48.290;11.460;2023-03-14T16:31:02;8.30;99.90
36322;DHT22;23564;48.290;11.460;2023-03-14T16:33:28;8.30;1.00
36322;DHT22;23564;48.290;11.460;2023-03-14T16:35:59;8.20;1.00
36322;DHT22;23564;48.290;11.460;2023-03-14T16:38:26;8.20;99.90
36322;DHT22;23564;48.290;11.460;2023-03-14T16:43:36;8.10;99.90
36322;DHT22;23564;48.290;11.460;2023-03-14T16:46:02;8.10;93.30
36322;DHT22;23564;48.290;11.460;2023-03-14T16:48:28;8.10;10.40
36322;DHT22;23564;48.290;11.460;2023-03-14T16:50:54;8.00;27.30